Time,TemperatureF,DewpointF,PressureIn,WindDirection,WindDirectionDegrees,WindSpeedMPH,WindSpeedGustMPH,Humidity,HourlyPrecipIn,Conditions,Clouds,dailyrainin,SoftwareType,DateUTC
2013-01-09 00:05:00,28.2,22.5,29.55,SW,231,3.0,6.0,79,0.00,CLR,,0.00,WeatherDisplay:10.37,2013-01-09 06:05:00,
2013-01-09 00:10:00,28.4,23.0,29.55,WSW,237,0.0,0.0,80,0.00,CLR,,0.00,WeatherDisplay:10.37,2013-01-09 06:10:00,
2013-01-09 00:15:00,28.6,23.2,29.55,WSW,238,0.0,0.0,80,0.00,CLR,,0.00,WeatherDisplay:10.37,2013-01-09 06:15:00,
2013-01-09 00:20:00,28.8,23.4,29.55,SW,235,0.0,0.0,80,0.00,CLR,,0.00,WeatherDisplay:10.37,2013-01-09 06:20:00,
2013-01-09 00:25:00,29.1,23.7,29.55,WSW,243,6.0,6.0,80,0.00,CLR,,0.00,WeatherDisplay:10.37,2013-01-09 06:25:00,
2013-01-09 00:30:00,29.3,23.9,29.56,WSW,246,0.0,0.0,80,0.00,CLR,,0.00,WeatherDisplay:10.37,2013-01-09 06:30:00,
2013-01-09 00:35:00,29.3,23.9,29.55,WSW,240,0.0,1.0,80,0.00,CLR,,0.00,WeatherDisplay:10.37,2013-01-09 06:35:00,
2013-01-09 00:40:00,29.7,24.2,29.55,WSW,237,5.0,5.0,80,0.00,CLR,,0.00,WeatherDisplay:10.37,2013-01-09 06:40:00,
2013-01-09 00:45:00,29.7,24.2,29.55,WSW,239,6.0,7.0,80,0.00,CLR,,0.00,WeatherDisplay:10.37,2013-01-09 06:45:00,
2013-01-09 00:50:00,29.8,24.4,29.56,WSW,247,0.0,3.0,80,0.00,CLR,,0.00,WeatherDisplay:10.37,2013-01-09 06:50:00,
2013-01-09 00:55:00,29.9,24.5,29.56,SW,229,7.0,8.0,80,0.00,CLR,,0.00,WeatherDisplay:10.37,2013-01-09 06:55:00,
2013-01-09 01:00:00,30.0,24.6,29.56,SW,234,2.0,5.0,80,0.00,CLR,,0.00,WeatherDisplay:10.37,2013-01-09 07:00:00,
2013-01-09 01:05:00,30.2,24.8,29.57,SW,236,7.0,7.0,80,0.00,CLR,,0.00,WeatherDisplay:10.37,2013-01-09 07:05:00,
2013-01-09 01:10:00,30.5,25.0,29.56,WSW,243,5.0,7.0,80,0.00,CLR,,0.00,WeatherDisplay:10.37,2013-01-09 07:10:00,
2013-01-09 01:15:00,30.7,25.3,29.56,WSW,249,2.0,5.0,80,0.00,CLR,,0.00,WeatherDisplay:10.37,2013-01-09 07:15:00,
2013-01-09 01:20:00,30.7,25.3,29.56,WSW,238,0.0,0.0,80,0.00,CLR,,0.00,WeatherDisplay:10.37,2013-01-09 07:20:00,
2013-01-09 01:25:00,30.9,25.2,29.56,WSW,237,1.0,3.0,79,0.00,CLR,,0.00,WeatherDisplay:10.37,2013-01-09 07:25:00,
2013-01-09 01:30:00,31.1,25.3,29.55,WSW,240,0.0,0.0,79,0.00,CLR,,0.00,WeatherDisplay:10.37,2013-01-09 07:30:00,
2013-01-09 01:35:00,31.1,25.3,29.56,SW,223,5.0,6.0,79,0.00,CLR,,0.00,WeatherDisplay:10.37,2013-01-09 07:35:00,
2013-01-09 01:40:00,30.9,25.2,29.56,SW,233,6.0,6.0,79,0.00,CLR,,0.00,WeatherDisplay:10.37,2013-01-09 07:40:00,
2013-01-09 01:45:00,30.7,24.7,29.56,SW,231,2.0,5.0,78,0.00,CLR,,0.00,WeatherDisplay:10.37,2013-01-09 07:45:00,
2013-01-09 01:50:00,30.4,24.3,29.56,SW,215,0.0,5.0,78,0.00,CLR,,0.00,WeatherDisplay:10.37,2013-01-09 07:50:00,
2013-01-09 01:55:00,30.2,24.2,29.56,SW,223,1.0,2.0,78,0.00,CLR,,0.00,WeatherDisplay:10.37,2013-01-09 07:55:00,
2013-01-09 02:00:00,30.0,24.3,29.56,WSW,246,2.0,4.0,79,0.00,CLR,,0.00,WeatherDisplay:10.37,2013-01-09 08:00:00,
2013-01-09 02:05:00,30.0,24.3,29.56,WSW,243,0.0,0.0,79,0.00,CLR,,0.00,WeatherDisplay:10.37,2013-01-09 08:05:00,
2013-01-09 02:10:00,30.0,24.3,29.57,WSW,242,6.0,6.0,79,0.00,CLR,,0.00,WeatherDisplay:10.37,2013-01-09 08:10:00,
2013-01-09 02:15:00,29.8,24.1,29.57,SW,233,1.0,6.0,79,0.00,CLR,,0.00,WeatherDisplay:10.37,2013-01-09 08:15:00,
2013-01-09 02:20:00,29.7,23.9,29.57,SW,230,0.0,0.0,79,0.00,CLR,,0.00,WeatherDisplay:10.37,2013-01-09 08:20:00,
2013-01-09 02:25:00,29.6,23.6,29.56,WSW,248,0.0,5.0,78,0.00,CLR,,0.00,WeatherDisplay:10.37,2013-01-09 08:25:00,
2013-01-09 02:30:00,29.3,23.3,29.57,WSW,244,2.0,3.0,78,0.00,CLR,,0.00,WeatherDisplay:10.37,2013-01-09 08:30:00,
2013-01-09 02:35:00,29.1,23.4,29.57,WSW,239,3.0,6.0,79,0.00,CLR,,0.00,WeatherDisplay:10.37,2013-01-09 08:35:00,
2013-01-09 02:40:00,28.8,23.1,29.57,SW,228,0.0,0.0,79,0.00,CLR,,0.00,WeatherDisplay:10.37,2013-01-09 08:40:00,
2013-01-09 02:45:00,28.6,22.9,29.57,SW,222,0.0,0.0,79,0.00,CLR,,0.00,WeatherDisplay:10.37,2013-01-09 08:45:00,
2013-01-09 02:50:00,28.2,22.5,29.57,SW,227,2.0,3.0,79,0.00,CLR,,0.00,WeatherDisplay:10.37,2013-01-09 08:50:00,
2013-01-09 02:55:00,28.2,22.5,29.57,SW,217,0.0,2.0,79,0.00,CLR,,0.00,WeatherDisplay:10.37,2013-01-09 08:55:00,
2013-01-09 03:00:00,27.9,22.2,29.57,SW,233,3.0,5.0,79,0.00,CLR,,0.00,WeatherDisplay:10.37,2013-01-09 09:00:00,
2013-01-09 03:05:00,27.7,22.0,29.57,SW,235,0.0,4.0,79,0.00,CLR,,0.00,WeatherDisplay:10.37,2013-01-09 09:05:00,
2013-01-09 03:10:00,27.7,22.3,29.57,SW,233,0.0,3.0,80,0.00,CLR,,0.00,WeatherDisplay:10.37,2013-01-09 09:10:00,
2013-01-09 03:15:00,27.7,22.3,29.57,SW,222,6.0,7.0,80,0.00,CLR,,0.00,WeatherDisplay:10.37,2013-01-09 09:15:00,
2013-01-09 03:20:00,27.9,22.5,29.57,SW,223,0.0,4.0,80,0.00,CLR,,0.00,WeatherDisplay:10.37,2013-01-09 09:20:00,
2013-01-09 03:25:00,28.0,22.7,29.57,SW,235,0.0,0.0,80,0.00,CLR,,0.00,WeatherDisplay:10.37,2013-01-09 09:25:00,
2013-01-09 03:30:00,28.2,22.8,29.57,WSW,248,2.0,5.0,80,0.00,CLR,,0.00,WeatherDisplay:10.37,2013-01-09 09:30:00,
2013-01-09 03:35:00,28.2,22.8,29.57,WSW,256,0.0,6.0,80,0.00,CLR,,0.00,WeatherDisplay:10.37,2013-01-09 09:35:00,
2013-01-09 03:40:00,28.2,22.8,29.57,WSW,245,0.0,5.0,80,0.00,CLR,,0.00,WeatherDisplay:10.37,2013-01-09 09:40:00,
2013-01-09 03:45:00,28.6,23.5,29.58,SW,236,5.0,5.0,81,0.00,CLR,,0.00,WeatherDisplay:10.37,2013-01-09 09:45:00,
2013-01-09 03:50:00,28.8,23.4,29.58,WSW,252,6.0,7.0,80,0.00,CLR,,0.00,WeatherDisplay:10.37,2013-01-09 09:50:00,
2013-01-09 03:55:00,29.1,23.7,29.58,WSW,251,2.0,7.0,80,0.00,CLR,,0.00,WeatherDisplay:10.37,2013-01-09 09:55:00,
2013-01-09 04:00:00,29.3,23.9,29.58,WSW,246,2.0,7.0,80,0.00,CLR,,0.00,WeatherDisplay:10.37,2013-01-09 10:00:00,
2013-01-09 04:05:00,29.3,23.9,29.58,WSW,252,5.0,7.0,80,0.00,CLR,,0.00,WeatherDisplay:10.37,2013-01-09 10:05:00,
2013-01-09 04:10:00,29.5,24.1,29.58,West,260,0.0,5.0,80,0.00,CLR,,0.00,WeatherDisplay:10.37,2013-01-09 10:10:00,
2013-01-09 04:15:00,29.8,24.4,29.58,WSW,254,6.0,8.0,80,0.00,CLR,,0.00,WeatherDisplay:10.37,2013-01-09 10:15:00,
2013-01-09 04:20:00,30.0,24.3,29.58,WSW,239,8.0,9.0,79,0.00,CLR,,0.00,WeatherDisplay:10.37,2013-01-09 10:20:00,
2013-01-09 04:25:00,30.0,24.3,29.58,WSW,249,8.0,9.0,79,0.00,CLR,,0.00,WeatherDisplay:10.37,2013-01-09 10:25:00,
2013-01-09 04:30:00,30.4,24.6,29.58,WSW,252,6.0,9.0,79,0.00,CLR,,0.00,WeatherDisplay:10.37,2013-01-09 10:30:00,
2013-01-09 04:35:00,30.7,24.7,29.58,WSW,252,9.0,10.0,78,0.00,CLR,,0.00,WeatherDisplay:10.37,2013-01-09 10:35:00,
2013-01-09 04:40:00,31.2,25.1,29.58,WSW,254,6.0,10.0,78,0.00,CLR,,0.00,WeatherDisplay:10.37,2013-01-09 10:40:00,
2013-01-09 04:45:00,32.2,25.8,29.59,West,265,7.0,8.0,77,0.00,CLR,,0.00,WeatherDisplay:10.37,2013-01-09 10:45:00,
2013-01-09 04:50:00,32.9,25.8,29.59,WSW,257,18.0,25.0,75,0.00,CLR,,0.00,WeatherDisplay:10.37,2013-01-09 10:50:00,
2013-01-09 04:55:00,33.3,25.9,29.59,West,266,6.0,15.0,74,0.00,CLR,,0.00,WeatherDisplay:10.37,2013-01-09 10:55:00,
2013-01-09 05:00:00,33.6,25.6,29.59,West,276,12.0,13.0,72,0.00,CLR,,0.00,WeatherDisplay:10.37,2013-01-09 11:00:00,
2013-01-09 05:05:00,33.8,25.7,29.59,West,265,7.0,8.0,72,0.00,CLR,,0.00,WeatherDisplay:10.37,2013-01-09 11:05:00,
2013-01-09 05:10:00,33.8,25.4,29.60,West,265,8.0,9.0,71,0.00,CLR,,0.00,WeatherDisplay:10.37,2013-01-09 11:10:00,
2013-01-09 05:15:00,33.8,25.0,29.60,West,281,9.0,10.0,70,0.00,CLR,,0.00,WeatherDisplay:10.37,2013-01-09 11:15:00,
2013-01-09 05:20:00,33.7,25.0,29.60,WNW,282,10.0,11.0,70,0.00,CLR,,0.00,WeatherDisplay:10.37,2013-01-09 11:20:00,
2013-01-09 05:25:00,33.6,24.9,29.60,West,271,5.0,10.0,70,0.00,CLR,,0.00,WeatherDisplay:10.37,2013-01-09 11:25:00,
2013-01-09 05:30:00,33.4,24.7,29.61,WSW,252,3.0,8.0,70,0.00,CLR,,0.00,WeatherDisplay:10.37,2013-01-09 11:30:00,
2013-01-09 05:35:00,33.3,24.9,29.61,West,264,12.0,15.0,71,0.00,CLR,,0.00,WeatherDisplay:10.37,2013-01-09 11:35:00,
2013-01-09 05:40:00,33.3,24.5,29.62,West,275,3.0,10.0,70,0.00,CLR,,0.00,WeatherDisplay:10.37,2013-01-09 11:40:00,
2013-01-09 05:45:00,33.3,24.5,29.62,West,276,8.0,12.0,70,0.00,CLR,,0.00,WeatherDisplay:10.37,2013-01-09 11:45:00,
2013-01-09 05:50:00,32.9,24.2,29.62,West,265,6.0,8.0,70,0.00,CLR,,0.00,WeatherDisplay:10.37,2013-01-09 11:50:00,
2013-01-09 05:55:00,32.9,24.5,29.63,WSW,255,1.0,7.0,71,0.00,CLR,,0.00,WeatherDisplay:10.37,2013-01-09 11:55:00,
2013-01-09 06:00:00,32.7,24.3,29.63,WSW,256,9.0,9.0,71,0.00,CLR,,0.00,WeatherDisplay:10.37,2013-01-09 12:00:00,
2013-01-09 06:05:00,32.7,24.3,29.64,West,278,2.0,7.0,71,0.00,CLR,,0.00,WeatherDisplay:10.37,2013-01-09 12:05:00,
2013-01-09 06:10:00,32.4,24.0,29.64,WNW,290,5.0,9.0,71,0.00,CLR,,0.00,WeatherDisplay:10.37,2013-01-09 12:10:00,
2013-01-09 06:15:00,32.4,24.0,29.65,West,275,8.0,8.0,71,0.00,CLR,,0.00,WeatherDisplay:10.37,2013-01-09 12:15:00,
2013-01-09 06:20:00,32.4,24.0,29.65,West,259,7.0,8.0,71,0.00,CLR,,0.00,WeatherDisplay:10.37,2013-01-09 12:20:00,
2013-01-09 06:25:00,32.2,23.8,29.65,WSW,248,0.0,11.0,71,0.00,CLR,,0.00,WeatherDisplay:10.37,2013-01-09 12:25:00,
2013-01-09 06:30:00,32.2,23.8,29.65,West,265,10.0,11.0,71,0.00,CLR,,0.00,WeatherDisplay:10.37,2013-01-09 12:30:00,
2013-01-09 06:35:00,32.2,23.8,29.66,West,270,5.0,9.0,71,0.00,CLR,,0.00,WeatherDisplay:10.37,2013-01-09 12:35:00,
2013-01-09 06:40:00,32.0,23.7,29.66,West,266,5.0,8.0,71,0.00,CLR,,0.00,WeatherDisplay:10.37,2013-01-09 12:40:00,
2013-01-09 06:45:00,32.0,23.7,29.67,WNW,285,3.0,9.0,71,0.00,CLR,,0.00,WeatherDisplay:10.37,2013-01-09 12:45:00,
2013-01-09 06:50:00,31.8,23.1,29.68,WNW,293,8.0,10.0,70,0.00,CLR,,0.00,WeatherDisplay:10.37,2013-01-09 12:50:00,
2013-01-09 06:55:00,31.8,23.1,29.68,WNW,286,6.0,13.0,70,0.00,CLR,,0.00,WeatherDisplay:10.37,2013-01-09 12:55:00,
2013-01-09 07:00:00,31.8,22.8,29.68,West,267,12.0,18.0,69,0.00,CLR,,0.00,WeatherDisplay:10.37,2013-01-09 13:00:00,
2013-01-09 07:05:00,31.8,22.8,29.69,WSW,256,2.0,12.0,69,0.00,CLR,,0.00,WeatherDisplay:10.37,2013-01-09 13:05:00,
2013-01-09 07:10:00,31.5,22.1,29.69,West,281,7.0,8.0,68,0.00,CLR,,0.00,WeatherDisplay:10.37,2013-01-09 13:10:00,
2013-01-09 07:15:00,31.4,22.1,29.70,WNW,296,0.0,10.0,68,0.00,CLR,,0.00,WeatherDisplay:10.37,2013-01-09 13:15:00,
2013-01-09 07:20:00,31.1,22.1,29.70,WNW,289,7.0,10.0,69,0.00,CLR,,0.00,WeatherDisplay:10.37,2013-01-09 13:20:00,
2013-01-09 07:25:00,31.1,21.8,29.70,West,274,9.0,9.0,68,0.00,CLR,,0.00,WeatherDisplay:10.37,2013-01-09 13:25:00,
2013-01-09 07:30:00,31.1,22.1,29.71,West,274,6.0,9.0,69,0.00,CLR,,0.00,WeatherDisplay:10.37,2013-01-09 13:30:00,
2013-01-09 07:35:00,30.9,21.9,29.71,WNW,289,6.0,8.0,69,0.00,CLR,,0.00,WeatherDisplay:10.37,2013-01-09 13:35:00,
2013-01-09 07:40:00,30.6,21.9,29.72,WNW,288,8.0,8.0,70,0.00,CLR,,0.00,WeatherDisplay:10.37,2013-01-09 13:40:00,
2013-01-09 07:45:00,30.2,21.6,29.72,West,277,7.0,8.0,70,0.00,CLR,,0.00,WeatherDisplay:10.37,2013-01-09 13:45:00,
2013-01-09 07:55:00,29.8,21.2,29.73,West,262,0.0,0.0,70,0.00,CLR,,0.00,WeatherDisplay:10.37,2013-01-09 13:55:00,
2013-01-09 08:00:00,29.7,21.4,29.74,West,261,1.0,9.0,71,0.00,CLR,,0.00,WeatherDisplay:10.37,2013-01-09 14:00:00,
2013-01-09 08:05:00,29.7,21.4,29.74,West,267,6.0,9.0,71,0.00,CLR,,0.00,WeatherDisplay:10.37,2013-01-09 14:05:00,
2013-01-09 08:10:00,29.7,21.1,29.75,West,273,6.0,12.0,70,0.00,CLR,,0.00,WeatherDisplay:10.37,2013-01-09 14:10:00,
2013-01-09 08:15:00,29.8,21.2,29.75,West,274,12.0,12.0,70,0.00,CLR,,0.00,WeatherDisplay:10.37,2013-01-09 14:15:00,
2013-01-09 08:20:00,29.8,21.2,29.75,West,267,3.0,6.0,70,0.00,CLR,,0.00,WeatherDisplay:10.37,2013-01-09 14:20:00,
2013-01-09 08:30:00,29.7,21.1,29.75,WNW,287,6.0,12.0,70,0.00,CLR,,0.00,WeatherDisplay:10.37,2013-01-09 14:30:00,
2013-01-09 08:35:00,29.7,21.1,29.75,WNW,289,8.0,18.0,70,0.00,CLR,,0.00,WeatherDisplay:10.37,2013-01-09 14:35:00,
2013-01-09 08:40:00,29.3,20.7,29.76,WNW,285,7.0,11.0,70,0.00,CLR,,0.00,WeatherDisplay:10.37,2013-01-09 14:40:00,
2013-01-09 08:45:00,29.3,20.7,29.76,West,272,7.0,7.0,70,0.00,CLR,,0.00,WeatherDisplay:10.37,2013-01-09 14:45:00,
2013-01-09 08:50:00,29.3,20.4,29.77,West,270,7.0,7.0,69,0.00,CLR,,0.00,WeatherDisplay:10.37,2013-01-09 14:50:00,
2013-01-09 08:55:00,29.3,20.4,29.78,West,273,6.0,7.0,69,0.00,CLR,,0.00,WeatherDisplay:10.37,2013-01-09 14:55:00,
2013-01-09 09:00:00,29.3,20.4,29.78,WNW,288,9.0,10.0,69,0.00,CLR,,0.00,WeatherDisplay:10.37,2013-01-09 15:00:00,
2013-01-09 09:05:00,29.3,20.4,29.78,WNW,291,6.0,8.0,69,0.00,CLR,,0.00,WeatherDisplay:10.37,2013-01-09 15:05:00,
2013-01-09 09:10:00,29.3,20.4,29.78,West,280,8.0,10.0,69,0.00,CLR,,0.00,WeatherDisplay:10.37,2013-01-09 15:10:00,
2013-01-09 09:15:00,29.3,20.0,29.78,West,275,6.0,16.0,68,0.00,CLR,,0.00,WeatherDisplay:10.37,2013-01-09 15:15:00,
2013-01-09 09:20:00,29.3,20.0,29.78,West,272,3.0,16.0,68,0.00,CLR,,0.00,WeatherDisplay:10.37,2013-01-09 15:20:00,
2013-01-09 09:25:00,29.3,20.0,29.79,West,275,12.0,12.0,68,0.00,CLR,,0.00,WeatherDisplay:10.37,2013-01-09 15:25:00,
2013-01-09 09:30:00,29.4,20.1,29.79,WNW,298,7.0,21.0,68,0.00,CLR,,0.00,WeatherDisplay:10.37,2013-01-09 15:30:00,
2013-01-09 09:35:00,29.7,20.0,29.80,NW,304,9.0,21.0,67,0.00,CLR,,0.00,WeatherDisplay:10.37,2013-01-09 15:35:00,
2013-01-09 09:40:00,29.5,20.2,29.80,NW,309,9.0,12.0,68,0.00,CLR,,0.00,WeatherDisplay:10.37,2013-01-09 15:40:00,
2013-01-09 09:50:00,29.7,20.0,29.80,West,261,5.0,8.0,67,0.00,CLR,,0.00,WeatherDisplay:10.37,2013-01-09 15:50:00,
2013-01-09 09:55:00,29.7,20.4,29.80,West,267,0.0,6.0,68,0.00,CLR,,0.00,WeatherDisplay:10.37,2013-01-09 15:55:00,
2013-01-09 10:00:00,29.7,20.4,29.81,West,268,3.0,12.0,68,0.00,CLR,,0.00,WeatherDisplay:10.37,2013-01-09 16:00:00,
2013-01-09 10:05:00,29.7,20.0,29.81,West,274,3.0,6.0,67,0.00,CLR,,0.00,WeatherDisplay:10.37,2013-01-09 16:05:00,
2013-01-09 10:10:00,29.8,20.5,29.81,West,271,0.0,6.0,68,0.00,CLR,,0.00,WeatherDisplay:10.37,2013-01-09 16:10:00,
2013-01-09 10:15:00,29.8,20.2,29.81,WNW,286,5.0,10.0,67,0.00,CLR,,0.00,WeatherDisplay:10.37,2013-01-09 16:15:00,
2013-01-09 10:20:00,29.8,20.2,29.81,WNW,286,7.0,10.0,67,0.00,CLR,,0.00,WeatherDisplay:10.37,2013-01-09 16:20:00,
2013-01-09 10:25:00,30.0,20.4,29.82,WNW,287,1.0,6.0,67,0.00,CLR,,0.00,WeatherDisplay:10.37,2013-01-09 16:25:00,
2013-01-09 10:30:00,30.0,20.0,29.82,WNW,287,0.0,5.0,66,0.00,CLR,,0.00,WeatherDisplay:10.37,2013-01-09 16:30:00,
2013-01-09 10:35:00,30.2,20.6,29.82,West,278,1.0,2.0,67,0.00,CLR,,0.00,WeatherDisplay:10.37,2013-01-09 16:35:00,
2013-01-09 10:40:00,30.2,20.2,29.82,WNW,289,9.0,9.0,66,0.00,CLR,,0.00,WeatherDisplay:10.37,2013-01-09 16:40:00,
2013-01-09 10:45:00,30.2,20.2,29.82,NW,306,8.0,9.0,66,0.00,CLR,,0.00,WeatherDisplay:10.37,2013-01-09 16:45:00,
2013-01-09 10:50:00,30.2,20.2,29.82,NW,310,2.0,7.0,66,0.00,CLR,,0.00,WeatherDisplay:10.37,2013-01-09 16:50:00,
2013-01-09 10:55:00,30.2,20.2,29.81,WNW,300,8.0,9.0,66,0.00,CLR,,0.00,WeatherDisplay:10.37,2013-01-09 16:55:00,
2013-01-09 11:00:00,30.5,20.5,29.82,WNW,289,5.0,6.0,66,0.00,CLR,,0.00,WeatherDisplay:10.37,2013-01-09 17:00:00,
2013-01-09 11:05:00,30.6,20.5,29.82,WNW,287,1.0,8.0,66,0.00,CLR,,0.00,WeatherDisplay:10.37,2013-01-09 17:05:00,
2013-01-09 11:10:00,30.6,20.5,29.82,NW,308,6.0,9.0,66,0.00,CLR,,0.00,WeatherDisplay:10.37,2013-01-09 17:10:00,
2013-01-09 11:15:00,30.6,20.2,29.82,WNW,303,6.0,15.0,65,0.00,CLR,,0.00,WeatherDisplay:10.37,2013-01-09 17:15:00,
2013-01-09 11:20:00,30.7,20.7,29.83,WNW,290,2.0,11.0,66,0.00,CLR,,0.00,WeatherDisplay:10.37,2013-01-09 17:20:00,
2013-01-09 11:25:00,30.9,20.9,29.83,WNW,289,0.0,11.0,66,0.00,CLR,,0.00,WeatherDisplay:10.37,2013-01-09 17:25:00,
2013-01-09 11:30:00,31.0,20.6,29.83,West,277,6.0,8.0,65,0.00,CLR,,0.00,WeatherDisplay:10.37,2013-01-09 17:30:00,
2013-01-09 11:35:00,31.1,21.1,29.83,West,262,3.0,8.0,66,0.00,CLR,,0.00,WeatherDisplay:10.37,2013-01-09 17:35:00,
2013-01-09 11:40:00,31.1,20.7,29.83,WNW,282,0.0,7.0,65,0.00,CLR,,0.00,WeatherDisplay:10.37,2013-01-09 17:40:00,
2013-01-09 11:45:00,31.1,20.7,29.85,West,274,1.0,7.0,65,0.00,CLR,,0.00,WeatherDisplay:10.37,2013-01-09 17:45:00,
2013-01-09 11:50:00,31.5,21.0,29.86,WSW,250,6.0,6.0,65,0.00,CLR,,0.00,WeatherDisplay:10.37,2013-01-09 17:50:00,
2013-01-09 11:55:00,31.4,21.0,29.86,WSW,249,12.0,12.0,65,0.00,CLR,,0.00,WeatherDisplay:10.37,2013-01-09 17:55:00,
2013-01-09 12:00:00,31.3,20.9,29.86,WSW,254,9.0,10.0,65,0.00,CLR,,0.00,WeatherDisplay:10.37,2013-01-09 18:00:00,
2013-01-09 12:05:00,31.5,21.0,29.87,WSW,257,5.0,7.0,65,0.00,CLR,,0.00,WeatherDisplay:10.37,2013-01-09 18:05:00,
2013-01-09 12:10:00,31.5,21.0,29.87,WSW,253,0.0,7.0,65,0.00,CLR,,0.00,WeatherDisplay:10.37,2013-01-09 18:10:00,
2013-01-09 12:15:00,31.5,20.7,29.86,WSW,255,5.0,6.0,64,0.00,CLR,,0.00,WeatherDisplay:10.37,2013-01-09 18:15:00,
2013-01-09 12:20:00,31.7,20.9,29.86,West,264,3.0,5.0,64,0.00,CLR,,0.00,WeatherDisplay:10.37,2013-01-09 18:20:00,
2013-01-09 12:25:00,31.7,20.9,29.87,West,260,6.0,8.0,64,0.00,CLR,,0.00,WeatherDisplay:10.37,2013-01-09 18:25:00,
2013-01-09 12:30:00,31.8,21.0,29.88,West,265,3.0,8.0,64,0.00,CLR,,0.00,WeatherDisplay:10.37,2013-01-09 18:30:00,
2013-01-09 12:35:00,31.8,21.0,29.88,West,269,6.0,7.0,64,0.00,CLR,,0.00,WeatherDisplay:10.37,2013-01-09 18:35:00,
2013-01-09 12:40:00,31.8,21.0,29.88,West,277,5.0,7.0,64,0.00,CLR,,0.00,WeatherDisplay:10.37,2013-01-09 18:40:00,
2013-01-09 12:45:00,32.1,20.9,29.88,WNW,284,3.0,5.0,63,0.00,CLR,,0.00,WeatherDisplay:10.37,2013-01-09 18:45:00,
2013-01-09 12:50:00,32.4,21.2,29.88,West,273,0.0,0.0,63,0.00,CLR,,0.00,WeatherDisplay:10.37,2013-01-09 18:50:00,
2013-01-09 12:55:00,32.5,21.3,29.90,West,264,5.0,6.0,63,0.00,CLR,,0.00,WeatherDisplay:10.37,2013-01-09 18:55:00,
2013-01-09 13:00:00,32.7,21.5,29.90,WSW,256,6.0,6.0,63,0.00,CLR,,0.00,WeatherDisplay:10.37,2013-01-09 19:00:00,
2013-01-09 13:05:00,32.4,21.2,29.90,WSW,251,6.0,6.0,63,0.00,CLR,,0.00,WeatherDisplay:10.37,2013-01-09 19:05:00,
2013-01-09 13:10:00,32.4,21.2,29.91,WSW,246,8.0,8.0,63,0.00,CLR,,0.00,WeatherDisplay:10.37,2013-01-09 19:10:00,
2013-01-09 13:15:00,32.4,21.2,29.91,WSW,256,1.0,6.0,63,0.00,CLR,,0.00,WeatherDisplay:10.37,2013-01-09 19:15:00,
2013-01-09 13:20:00,32.4,21.2,29.92,West,274,1.0,6.0,63,0.00,CLR,,0.00,WeatherDisplay:10.37,2013-01-09 19:20:00,
2013-01-09 13:25:00,32.7,21.1,29.93,West,281,0.0,10.0,62,0.00,CLR,,0.00,WeatherDisplay:10.37,2013-01-09 19:25:00,
2013-01-09 13:30:00,32.7,21.1,29.93,WSW,256,14.0,14.0,62,0.00,CLR,,0.00,WeatherDisplay:10.37,2013-01-09 19:30:00,
2013-01-09 13:35:00,32.7,21.1,29.93,WSW,244,1.0,9.0,62,0.00,CLR,,0.00,WeatherDisplay:10.37,2013-01-09 19:35:00,
2013-01-09 13:40:00,32.9,21.3,29.94,WSW,243,10.0,10.0,62,0.00,CLR,,0.00,WeatherDisplay:10.37,2013-01-09 19:40:00,
2013-01-09 13:45:00,32.9,20.9,29.94,WSW,253,7.0,10.0,61,0.00,CLR,,0.00,WeatherDisplay:10.37,2013-01-09 19:45:00,
2013-01-09 13:50:00,32.9,20.9,29.94,WSW,251,9.0,10.0,61,0.00,CLR,,0.00,WeatherDisplay:10.37,2013-01-09 19:50:00,
2013-01-09 13:55:00,32.9,20.9,29.94,WSW,253,9.0,10.0,61,0.00,CLR,,0.00,WeatherDisplay:10.37,2013-01-09 19:55:00,
2013-01-09 14:00:00,32.9,20.9,29.94,West,273,6.0,6.0,61,0.00,CLR,,0.00,WeatherDisplay:10.37,2013-01-09 20:00:00,
2013-01-09 14:05:00,33.3,21.6,29.94,WSW,257,0.0,7.0,62,0.00,CLR,,0.00,WeatherDisplay:10.37,2013-01-09 20:05:00,
2013-01-09 14:10:00,33.3,21.6,29.95,WSW,240,3.0,10.0,62,0.00,CLR,,0.00,WeatherDisplay:10.37,2013-01-09 20:10:00,
2013-01-09 14:15:00,33.3,21.6,29.95,SW,234,9.0,10.0,62,0.00,CLR,,0.00,WeatherDisplay:10.37,2013-01-09 20:15:00,
2013-01-09 14:20:00,33.3,21.6,29.94,SW,236,6.0,7.0,62,0.00,CLR,,0.00,WeatherDisplay:10.37,2013-01-09 20:20:00,
2013-01-09 14:25:00,33.3,21.6,29.94,WSW,247,7.0,7.0,62,0.00,CLR,,0.00,WeatherDisplay:10.37,2013-01-09 20:25:00,
2013-01-09 14:30:00,33.4,21.4,29.95,West,277,2.0,7.0,61,0.00,CLR,,0.00,WeatherDisplay:10.37,2013-01-09 20:30:00,
2013-01-09 14:35:00,33.4,21.0,29.96,WNW,286,7.0,8.0,60,0.00,CLR,,0.00,WeatherDisplay:10.37,2013-01-09 20:35:00,
2013-01-09 14:40:00,33.5,21.4,29.96,West,272,5.0,8.0,61,0.00,CLR,,0.00,WeatherDisplay:10.37,2013-01-09 20:40:00,
2013-01-09 14:45:00,33.6,21.2,29.97,West,260,5.0,6.0,60,0.00,CLR,,0.00,WeatherDisplay:10.37,2013-01-09 20:45:00,
2013-01-09 14:50:00,33.6,21.6,29.97,WSW,252,6.0,7.0,61,0.00,CLR,,0.00,WeatherDisplay:10.37,2013-01-09 20:50:00,
2013-01-09 14:55:00,33.6,21.6,29.97,WSW,242,0.0,7.0,61,0.00,CLR,,0.00,WeatherDisplay:10.37,2013-01-09 20:55:00,
2013-01-09 15:00:00,33.6,21.6,29.98,SW,231,7.0,9.0,61,0.00,CLR,,0.00,WeatherDisplay:10.37,2013-01-09 21:00:00,
2013-01-09 15:05:00,33.6,21.6,29.98,SW,233,6.0,7.0,61,0.00,CLR,,0.00,WeatherDisplay:10.37,2013-01-09 21:05:00,
2013-01-09 15:10:00,33.4,21.4,29.98,SW,229,0.0,6.0,61,0.00,CLR,,0.00,WeatherDisplay:10.37,2013-01-09 21:10:00,
2013-01-09 15:15:00,33.4,21.4,29.99,SW,219,0.0,4.0,61,0.00,CLR,,0.00,WeatherDisplay:10.37,2013-01-09 21:15:00,
2013-01-09 15:20:00,33.3,21.3,29.99,SW,227,2.0,6.0,61,0.00,CLR,,0.00,WeatherDisplay:10.37,2013-01-09 21:20:00,
2013-01-09 15:25:00,33.3,21.3,29.99,SW,225,1.0,8.0,61,0.00,CLR,,0.00,WeatherDisplay:10.37,2013-01-09 21:25:00,
2013-01-09 15:30:00,33.3,21.3,30.00,WSW,243,6.0,6.0,61,0.00,CLR,,0.00,WeatherDisplay:10.37,2013-01-09 21:30:00,
2013-01-09 15:35:00,32.9,20.9,30.00,WSW,246,3.0,6.0,61,0.00,CLR,,0.00,WeatherDisplay:10.37,2013-01-09 21:35:00,
2013-01-09 15:40:00,32.9,20.9,29.99,WSW,246,0.0,6.0,61,0.00,CLR,,0.00,WeatherDisplay:10.37,2013-01-09 21:40:00,
2013-01-09 15:45:00,32.7,20.7,30.01,WSW,241,5.0,6.0,61,0.00,CLR,,0.00,WeatherDisplay:10.37,2013-01-09 21:45:00,
2013-01-09 15:50:00,32.4,20.4,30.01,SW,230,0.0,6.0,61,0.00,CLR,,0.00,WeatherDisplay:10.37,2013-01-09 21:50:00,
2013-01-09 15:55:00,32.4,20.4,30.01,WSW,248,0.0,6.0,61,0.00,CLR,,0.00,WeatherDisplay:10.37,2013-01-09 21:55:00,
2013-01-09 16:00:00,32.2,20.2,30.01,WSW,246,0.0,0.0,61,0.00,CLR,,0.00,WeatherDisplay:10.37,2013-01-09 22:00:00,
2013-01-09 16:05:00,32.0,20.1,30.01,WSW,242,0.0,0.0,61,0.00,CLR,,0.00,WeatherDisplay:10.37,2013-01-09 22:05:00,
2013-01-09 16:10:00,32.0,20.1,30.01,WSW,248,0.0,7.0,61,0.00,CLR,,0.00,WeatherDisplay:10.37,2013-01-09 22:10:00,
2013-01-09 16:15:00,31.8,19.9,30.01,West,261,0.0,7.0,61,0.00,CLR,,0.00,WeatherDisplay:10.37,2013-01-09 22:15:00,
2013-01-09 16:20:00,31.7,19.8,30.01,West,266,0.0,0.0,61,0.00,CLR,,0.00,WeatherDisplay:10.37,2013-01-09 22:20:00,
2013-01-09 16:25:00,31.5,19.5,30.01,West,270,0.0,0.0,61,0.00,CLR,,0.00,WeatherDisplay:10.37,2013-01-09 22:25:00,
2013-01-09 16:30:00,31.3,19.4,30.01,West,270,0.0,0.0,61,0.00,CLR,,0.00,WeatherDisplay:10.37,2013-01-09 22:30:00,
2013-01-09 16:35:00,30.9,19.4,30.01,West,270,0.0,0.0,62,0.00,CLR,,0.00,WeatherDisplay:10.37,2013-01-09 22:35:00,
2013-01-09 16:40:00,30.4,18.9,30.01,West,270,0.0,0.0,62,0.00,CLR,,0.00,WeatherDisplay:10.37,2013-01-09 22:40:00,
2013-01-09 16:45:00,30.0,18.9,30.01,West,261,0.0,0.0,63,0.00,CLR,,0.00,WeatherDisplay:10.37,2013-01-09 22:45:00,
2013-01-09 16:50:00,29.1,18.1,30.01,WSW,250,0.0,0.0,63,0.00,CLR,,0.00,WeatherDisplay:10.37,2013-01-09 22:50:00,
2013-01-09 16:55:00,28.5,17.5,30.01,WSW,248,0.0,0.0,63,0.00,CLR,,0.00,WeatherDisplay:10.37,2013-01-09 22:55:00,
2013-01-09 17:00:00,28.0,17.4,30.01,WSW,248,0.0,0.0,64,0.00,CLR,,0.00,WeatherDisplay:10.37,2013-01-09 23:00:00,
2013-01-09 17:05:00,27.3,16.7,30.01,WSW,248,0.0,0.0,64,0.00,CLR,,0.00,WeatherDisplay:10.37,2013-01-09 23:05:00,
2013-01-09 17:10:00,26.9,16.7,30.01,WSW,248,0.0,0.0,65,0.00,CLR,,0.00,WeatherDisplay:10.37,2013-01-09 23:10:00,
2013-01-09 17:15:00,26.5,16.7,30.01,WSW,241,0.0,0.0,66,0.00,CLR,,0.00,WeatherDisplay:10.37,2013-01-09 23:15:00,
2013-01-09 17:20:00,26.2,16.4,30.01,SW,229,0.0,0.0,66,0.00,CLR,,0.00,WeatherDisplay:10.37,2013-01-09 23:20:00,
2013-01-09 17:25:00,26.1,16.6,30.01,SW,217,0.0,0.0,67,0.00,CLR,,0.00,WeatherDisplay:10.37,2013-01-09 23:25:00,
2013-01-09 17:30:00,25.7,16.3,30.01,SW,215,0.0,0.0,67,0.00,CLR,,0.00,WeatherDisplay:10.37,2013-01-09 23:30:00,
2013-01-09 17:35:00,25.7,16.6,30.01,SW,223,0.0,0.0,68,0.00,CLR,,0.00,WeatherDisplay:10.37,2013-01-09 23:35:00,
2013-01-09 17:40:00,25.7,16.6,30.01,SW,232,0.0,0.0,68,0.00,CLR,,0.00,WeatherDisplay:10.37,2013-01-09 23:40:00,
2013-01-09 17:45:00,25.9,17.1,30.01,SW,222,0.0,0.0,69,0.00,CLR,,0.00,WeatherDisplay:10.37,2013-01-09 23:45:00,
2013-01-09 17:50:00,25.7,16.9,30.01,SSW,204,0.0,0.0,69,0.00,CLR,,0.00,WeatherDisplay:10.37,2013-01-09 23:50:00,
2013-01-09 17:55:00,25.7,16.9,30.01,SSW,202,0.0,0.0,69,0.00,CLR,,0.00,WeatherDisplay:10.37,2013-01-09 23:55:00,
2013-01-09 18:00:00,25.5,17.1,30.02,SSW,210,0.0,0.0,70,0.00,CLR,,0.00,WeatherDisplay:10.37,2013-01-10 00:00:00,
2013-01-09 18:05:00,25.5,17.1,30.02,SSW,208,3.0,5.0,70,0.00,CLR,,0.00,WeatherDisplay:10.37,2013-01-10 00:05:00,
2013-01-09 18:10:00,25.5,17.1,30.01,SW,220,6.0,6.0,70,0.00,CLR,,0.00,WeatherDisplay:10.37,2013-01-10 00:10:00,
2013-01-09 18:15:00,25.5,17.4,30.01,SW,223,0.0,0.0,71,0.00,CLR,,0.00,WeatherDisplay:10.37,2013-01-10 00:15:00,
2013-01-09 18:20:00,25.5,17.4,30.01,SW,214,0.0,0.0,71,0.00,CLR,,0.00,WeatherDisplay:10.37,2013-01-10 00:20:00,
2013-01-09 18:25:00,25.5,17.4,30.01,SSW,206,0.0,0.0,71,0.00,CLR,,0.00,WeatherDisplay:10.37,2013-01-10 00:25:00,
2013-01-09 18:30:00,25.5,17.4,30.01,SSW,202,0.0,0.0,71,0.00,CLR,,0.00,WeatherDisplay:10.37,2013-01-10 00:30:00,
2013-01-09 18:35:00,25.2,17.1,30.00,SSW,202,0.0,0.0,71,0.00,CLR,,0.00,WeatherDisplay:10.37,2013-01-10 00:35:00,
2013-01-09 18:40:00,25.2,17.1,30.00,SSW,202,0.0,0.0,71,0.00,CLR,,0.00,WeatherDisplay:10.37,2013-01-10 00:40:00,
2013-01-09 18:45:00,24.9,16.8,29.99,SSW,202,0.0,0.0,71,0.00,CLR,,0.00,WeatherDisplay:10.37,2013-01-10 00:45:00,
2013-01-09 18:50:00,24.8,16.7,29.99,SSW,202,0.0,0.0,71,0.00,CLR,,0.00,WeatherDisplay:10.37,2013-01-10 00:50:00,
2013-01-09 18:55:00,24.6,16.6,29.99,SSW,202,0.0,0.0,71,0.00,CLR,,0.00,WeatherDisplay:10.37,2013-01-10 00:55:00,
2013-01-09 19:00:00,24.1,16.1,29.99,SSW,202,0.0,0.0,71,0.00,CLR,,0.00,WeatherDisplay:10.37,2013-01-10 01:00:00,
2013-01-09 19:05:00,23.7,15.7,30.00,SSW,202,0.0,0.0,71,0.00,CLR,,0.00,WeatherDisplay:10.37,2013-01-10 01:05:00,
2013-01-09 19:10:00,23.3,15.6,29.99,SSW,202,0.0,0.0,72,0.00,CLR,,0.00,WeatherDisplay:10.37,2013-01-10 01:10:00,
2013-01-09 19:15:00,23.0,15.3,29.99,SSW,202,0.0,0.0,72,0.00,CLR,,0.00,WeatherDisplay:10.37,2013-01-10 01:15:00,
2013-01-09 19:20:00,22.8,15.1,29.99,SSW,202,0.0,0.0,72,0.00,CLR,,0.00,WeatherDisplay:10.37,2013-01-10 01:20:00,
2013-01-09 19:25:00,22.5,15.1,30.00,South,189,0.0,0.0,73,0.00,CLR,,0.00,WeatherDisplay:10.37,2013-01-10 01:25:00,
2013-01-09 19:30:00,22.1,14.8,30.00,South,180,0.0,0.0,73,0.00,CLR,,0.00,WeatherDisplay:10.37,2013-01-10 01:30:00,
2013-01-09 19:35:00,21.9,14.6,29.99,South,180,0.0,0.0,73,0.00,CLR,,0.00,WeatherDisplay:10.37,2013-01-10 01:35:00,
2013-01-09 19:45:00,21.2,13.9,29.99,South,180,0.0,0.0,73,0.00,CLR,,0.00,WeatherDisplay:10.37,2013-01-10 01:45:00,
2013-01-09 19:50:00,21.2,14.2,29.99,South,180,0.0,0.0,74,0.00,CLR,,0.00,WeatherDisplay:10.37,2013-01-10 01:50:00,
2013-01-09 19:55:00,21.2,14.2,29.99,South,180,0.0,0.0,74,0.00,CLR,,0.00,WeatherDisplay:10.37,2013-01-10 01:55:00,
2013-01-09 20:00:00,21.0,14.0,29.99,South,180,0.0,0.0,74,0.00,CLR,,0.00,WeatherDisplay:10.37,2013-01-10 02:00:00,
2013-01-09 20:05:00,21.0,14.3,29.99,South,180,0.0,0.0,75,0.00,CLR,,0.00,WeatherDisplay:10.37,2013-01-10 02:05:00,
2013-01-09 20:10:00,21.0,14.3,29.99,South,180,0.0,0.0,75,0.00,CLR,,0.00,WeatherDisplay:10.37,2013-01-10 02:10:00,
2013-01-09 20:15:00,20.7,14.0,30.00,South,180,0.0,0.0,75,0.00,CLR,,0.00,WeatherDisplay:10.37,2013-01-10 02:15:00,
2013-01-09 20:20:00,20.7,14.0,29.99,South,180,0.0,0.0,75,0.00,CLR,,0.00,WeatherDisplay:10.37,2013-01-10 02:20:00,
2013-01-09 20:25:00,20.3,13.6,30.00,South,180,0.0,0.0,75,0.00,CLR,,0.00,WeatherDisplay:10.37,2013-01-10 02:25:00,
2013-01-09 20:30:00,20.0,13.3,29.99,South,180,0.0,0.0,75,0.00,CLR,,0.00,WeatherDisplay:10.37,2013-01-10 02:30:00,
2013-01-09 20:35:00,19.9,13.2,29.99,South,180,0.0,0.0,75,0.00,CLR,,0.00,WeatherDisplay:10.37,2013-01-10 02:35:00,
2013-01-09 20:40:00,19.6,13.2,29.99,South,180,0.0,0.0,76,0.00,CLR,,0.00,WeatherDisplay:10.37,2013-01-10 02:40:00,
2013-01-09 20:45:00,19.8,13.7,29.98,South,180,0.0,0.0,77,0.00,CLR,,0.00,WeatherDisplay:10.37,2013-01-10 02:45:00,
2013-01-09 20:50:00,19.9,13.9,29.99,South,180,0.0,0.0,77,0.00,CLR,,0.00,WeatherDisplay:10.37,2013-01-10 02:50:00,
2013-01-09 20:55:00,20.1,14.1,30.00,South,180,0.0,0.0,77,0.00,CLR,,0.00,WeatherDisplay:10.37,2013-01-10 02:55:00,
2013-01-09 21:00:00,20.1,14.1,30.00,South,180,0.0,0.0,77,0.00,CLR,,0.00,WeatherDisplay:10.37,2013-01-10 03:00:00,
2013-01-09 21:05:00,19.8,13.7,30.00,South,180,0.0,0.0,77,0.00,CLR,,0.00,WeatherDisplay:10.37,2013-01-10 03:05:00,
2013-01-09 21:10:00,19.4,13.4,29.99,South,180,0.0,0.0,77,0.00,CLR,,0.00,WeatherDisplay:10.37,2013-01-10 03:10:00,
2013-01-09 21:15:00,19.4,13.4,29.99,South,180,0.0,0.0,77,0.00,CLR,,0.00,WeatherDisplay:10.37,2013-01-10 03:15:00,
2013-01-09 21:20:00,19.4,13.4,29.99,South,180,0.0,0.0,77,0.00,CLR,,0.00,WeatherDisplay:10.37,2013-01-10 03:20:00,
2013-01-09 21:25:00,19.2,13.5,29.99,South,180,0.0,0.0,78,0.00,CLR,,0.00,WeatherDisplay:10.37,2013-01-10 03:25:00,
2013-01-09 21:30:00,19.4,13.7,29.99,South,180,0.0,0.0,78,0.00,CLR,,0.00,WeatherDisplay:10.37,2013-01-10 03:30:00,
2013-01-09 21:35:00,19.4,13.7,29.99,South,180,0.0,0.0,78,0.00,CLR,,0.00,WeatherDisplay:10.37,2013-01-10 03:35:00,
2013-01-09 21:40:00,19.4,13.7,29.99,South,180,0.0,0.0,78,0.00,CLR,,0.00,WeatherDisplay:10.37,2013-01-10 03:40:00,
2013-01-09 21:45:00,19.4,13.7,29.98,South,180,0.0,0.0,78,0.00,CLR,,0.00,WeatherDisplay:10.37,2013-01-10 03:45:00,
2013-01-09 21:50:00,19.4,13.7,29.98,South,180,0.0,0.0,78,0.00,CLR,,0.00,WeatherDisplay:10.37,2013-01-10 03:50:00,
2013-01-09 21:55:00,19.4,13.9,29.98,South,180,0.0,0.0,79,0.00,CLR,,0.00,WeatherDisplay:10.37,2013-01-10 03:55:00,
2013-01-09 22:00:00,19.6,14.1,29.99,South,180,0.0,0.0,79,0.00,CLR,,0.00,WeatherDisplay:10.37,2013-01-10 04:00:00,
2013-01-09 22:05:00,19.6,14.1,29.99,South,180,0.0,0.0,79,0.00,CLR,,0.00,WeatherDisplay:10.37,2013-01-10 04:05:00,
2013-01-09 22:10:00,19.4,13.9,29.98,South,180,0.0,0.0,79,0.00,CLR,,0.00,WeatherDisplay:10.37,2013-01-10 04:10:00,
2013-01-09 22:15:00,19.2,13.5,29.99,South,180,0.0,0.0,78,0.00,CLR,,0.00,WeatherDisplay:10.37,2013-01-10 04:15:00,
2013-01-09 22:20:00,19.2,13.5,29.98,South,180,0.0,0.0,78,0.00,CLR,,0.00,WeatherDisplay:10.37,2013-01-10 04:20:00,
2013-01-09 22:25:00,19.0,13.6,29.97,South,180,0.0,0.0,79,0.00,CLR,,0.00,WeatherDisplay:10.37,2013-01-10 04:25:00,
2013-01-09 22:30:00,18.9,13.4,29.97,South,180,0.0,0.0,79,0.00,CLR,,0.00,WeatherDisplay:10.37,2013-01-10 04:30:00,
2013-01-09 22:35:00,19.0,13.6,29.96,South,180,0.0,0.0,79,0.00,CLR,,0.00,WeatherDisplay:10.37,2013-01-10 04:35:00,
2013-01-09 22:40:00,19.2,13.8,29.96,South,180,0.0,0.0,79,0.00,CLR,,0.00,WeatherDisplay:10.37,2013-01-10 04:40:00,
2013-01-09 22:45:00,19.4,13.9,29.96,South,180,0.0,0.0,79,0.00,CLR,,0.00,WeatherDisplay:10.37,2013-01-10 04:45:00,
2013-01-09 22:50:00,19.4,14.2,29.96,South,180,0.0,0.0,80,0.00,CLR,,0.00,WeatherDisplay:10.37,2013-01-10 04:50:00,
2013-01-09 22:55:00,19.4,14.2,29.96,South,180,0.0,0.0,80,0.00,CLR,,0.00,WeatherDisplay:10.37,2013-01-10 04:55:00,
2013-01-09 23:00:00,19.4,14.2,29.96,South,180,0.0,0.0,80,0.00,CLR,,0.00,WeatherDisplay:10.37,2013-01-10 05:00:00,
2013-01-09 23:05:00,19.2,13.8,29.96,South,180,0.0,0.0,79,0.00,CLR,,0.00,WeatherDisplay:10.37,2013-01-10 05:05:00,
2013-01-09 23:10:00,18.9,13.4,29.96,South,180,0.0,0.0,79,0.00,CLR,,0.00,WeatherDisplay:10.37,2013-01-10 05:10:00,
2013-01-09 23:15:00,18.5,13.1,29.96,South,180,0.0,0.0,79,0.00,CLR,,0.00,WeatherDisplay:10.37,2013-01-10 05:15:00,
2013-01-09 23:20:00,18.5,13.1,29.97,South,180,0.0,0.0,79,0.00,CLR,,0.00,WeatherDisplay:10.37,2013-01-10 05:20:00,
2013-01-09 23:25:00,18.3,12.9,29.97,South,180,0.0,0.0,79,0.00,CLR,,0.00,WeatherDisplay:10.37,2013-01-10 05:25:00,
2013-01-09 23:30:00,18.0,12.8,29.97,South,180,0.0,0.0,80,0.00,CLR,,0.00,WeatherDisplay:10.37,2013-01-10 05:30:00,
2013-01-09 23:35:00,18.0,12.8,29.96,South,180,0.0,0.0,80,0.00,CLR,,0.00,WeatherDisplay:10.37,2013-01-10 05:35:00,
2013-01-09 23:40:00,17.8,12.7,29.98,South,180,0.0,0.0,80,0.00,CLR,,0.00,WeatherDisplay:10.37,2013-01-10 05:40:00,
2013-01-09 23:45:00,17.8,12.7,29.98,South,180,0.0,0.0,80,0.00,CLR,,0.00,WeatherDisplay:10.37,2013-01-10 05:45:00,
2013-01-09 23:50:00,17.8,12.7,29.98,South,180,0.0,0.0,80,0.00,CLR,,0.00,WeatherDisplay:10.37,2013-01-10 05:50:00,
2013-01-09 23:55:00,17.8,12.7,29.99,South,180,0.0,0.0,80,0.00,CLR,,0.00,WeatherDisplay:10.37,2013-01-10 05:55:00,